Time;durP1;ratioP1;P1;durP2;ratioP2;P2;SDS_P1;SDS_P2;PMS_P1;PMS_P2;Temp;Humidity;BMP_temperature;BMP_pressure;BME280_temperature;BME280_humidity;BME280_pressure;Samples;Min_cycle;Max_cycle;Signal;HPM_P1;HPM_P2
2023/03/06 00:00:39;;;;;;;15.48;8.73;;;;;;;2.34;100.00;99766.41;5001912;28;20054;-70
2023/03/06 00:03:05;;;;;;;18.85;9.85;;;;;;;2.43;100.00;99791.66;5007005;28;20056;-70
2023/03/06 00:05:30;;;;;;;13.68;8.98;;;;;;;2.04;100.00;99761.44;5004740;28;20102;-71
2023/03/06 00:07:56;;;;;;;19.70;10.98;;;;;;;2.69;100.00;99868.22;5005824;28;20466;-70
2023/03/06 00:10:25;;;;;;;14.00;8.55;;;;;;;2.87;100.00;99916.13;5001258;28;20556;-70
2023/03/06 00:12:55;;;;;;;13.73;9.38;;;;;;;2.08;100.00;99781.34;4995239;28;20037;-71
2023/03/06 00:15:22;;;;;;;15.88;9.00;;;;;;;2.11;100.00;99790.06;5005098;28;20069;-70
2023/03/06 00:17:47;;;;;;;14.35;8.70;;;;;;;2.37;100.00;99800.16;5006456;28;20627;-70
2023/03/06 00:20:14;;;;;;;15.02;8.43;;;;;;;2.32;100.00;99801.78;5006214;28;20034;-70
2023/03/06 00:22:40;;;;;;;16.88;9.88;;;;;;;2.74;100.00;99910.66;5007300;28;20038;-70
2023/03/06 00:25:07;;;;;;;15.00;8.63;;;;;;;2.85;100.00;99917.78;5001114;28;20057;-72
2023/03/06 00:27:32;;;;;;;16.38;8.75;;;;;;;2.60;100.00;99912.06;4998499;28;20144;-69
2023/03/06 00:30:00;;;;;;;16.30;8.10;;;;;;;2.60;100.00;99893.91;5006070;28;20217;-75
2023/03/06 00:32:26;;;;;;;20.70;10.48;;;;;;;2.53;100.00;99884.25;5006507;28;20033;-70
2023/03/06 00:34:55;;;;;;;17.30;9.18;;;;;;;2.43;100.00;99844.28;5001707;28;20029;-69
2023/03/06 00:37:22;;;;;;;14.25;7.05;;;;;;;2.68;100.00;99918.28;5005278;28;20069;-70
2023/03/06 00:39:48;;;;;;;14.80;9.23;;;;;;;1.90;100.00;99784.38;4993706;28;20038;-72
2023/03/06 00:42:18;;;;;;;14.68;7.47;;;;;;;2.68;100.00;99917.41;5001391;28;20470;-71
2023/03/06 00:44:43;;;;;;;12.63;7.88;;;;;;;2.58;100.00;99899.91;5005554;28;20045;-70
2023/03/06 00:47:10;;;;;;;14.40;8.38;;;;;;;2.10;100.00;99798.66;5007072;28;20405;-70
2023/03/06 00:49:35;;;;;;;15.73;9.68;;;;;;;2.79;100.00;99922.84;5004685;28;20054;-70
2023/03/06 00:52:01;;;;;;;16.73;8.25;;;;;;;2.66;100.00;99898.34;5006057;28;20464;-73
2023/03/06 00:54:27;;;;;;;16.38;9.00;;;;;;;2.35;100.00;99838.09;4995723;28;20054;-70
2023/03/06 00:56:52;;;;;;;17.70;7.60;;;;;;;2.76;100.00;99921.03;5003618;28;20141;-69
2023/03/06 00:59:18;;;;;;;18.92;9.52;;;;;;;1.94;100.00;99767.22;5006194;28;20045;-69
2023/03/06 01:01:43;;;;;;;16.13;9.00;;;;;;;1.78;100.00;99797.00;5004626;28;20026;-68
2023/03/06 01:04:09;;;;;;;14.40;8.82;;;;;;;2.34;100.00;99877.72;5006343;28;20056;-70
2023/03/06 01:06:34;;;;;;;16.45;8.10;;;;;;;2.47;100.00;99900.50;5001582;28;20039;-69
2023/03/06 01:09:00;;;;;;;24.85;8.95;;;;;;;2.59;100.00;99899.06;4997840;28;20061;-69
2023/03/06 01:11:26;;;;;;;14.25;8.73;;;;;;;1.67;100.00;99747.59;5014592;28;20046;-70
2023/03/06 01:13:51;;;;;;;13.32;8.73;;;;;;;1.67;100.00;99748.47;5008710;28;20072;-71
2023/03/06 01:16:18;;;;;;;14.23;7.38;;;;;;;1.84;100.00;99764.41;5006628;28;20141;-70
2023/03/06 01:18:44;;;;;;;15.30;9.20;;;;;;;2.27;100.00;99837.91;5003917;28;20482;-71
2023/03/06 01:21:10;;;;;;;14.50;9.50;;;;;;;1.60;100.00;99745.69;4999110;28;20045;-70
2023/03/06 01:23:36;;;;;;;22.15;8.50;;;;;;;1.71;100.00;99767.53;4995807;28;20042;-71
2023/03/06 01:26:02;;;;;;;12.38;7.00;;;;;;;2.62;100.00;99888.75;5003699;28;20053;-71
2023/03/06 01:28:28;;;;;;;14.13;7.95;;;;;;;2.45;100.00;99873.69;5002404;28;20050;-73
2023/03/06 01:30:54;;;;;;;18.77;8.43;;;;;;;2.02;100.00;99794.16;5009017;28;20042;-72
2023/03/06 01:33:19;;;;;;;14.27;8.50;;;;;;;1.81;100.00;99766.91;5002087;28;20077;-71
2023/03/06 01:35:45;;;;;;;12.43;6.85;;;;;;;2.64;100.00;99885.34;4999842;28;20049;-71
2023/03/06 01:38:11;;;;;;;13.68;9.73;;;;;;;2.52;100.00;99896.31;5005254;28;20064;-71
2023/03/06 01:40:37;;;;;;;14.98;9.50;;;;;;;2.64;100.00;99895.72;5009053;28;20096;-70
2023/03/06 01:43:37;;;;;;;11.70;7.45;;;;;;;2.78;100.00;99900.34;5009752;28;20046;-71
2023/03/06 01:46:25;;;;;;;12.93;7.80;;;;;;;2.89;100.00;99897.16;5002070;28;20042;-70
2023/03/06 01:49:01;;;;;;;18.40;8.23;;;;;;;2.06;100.00;99773.56;5008357;28;20137;-70
2023/03/06 01:51:38;;;;;;;12.25;8.30;;;;;;;2.33;100.00;99839.75;5005587;28;20073;-71
2023/03/06 01:54:10;;;;;;;14.85;9.05;;;;;;;2.78;100.00;99901.22;5006555;28;20050;-70
2023/03/06 01:56:36;;;;;;;12.90;8.23;;;;;;;2.85;100.00;99903.13;5004272;28;20041;-70
2023/03/06 01:59:02;;;;;;;12.02;7.30;;;;;;;2.53;100.00;99882.53;4999734;28;20030;-70
2023/03/06 02:01:29;;;;;;;16.13;9.40;;;;;;;2.52;100.00;99891.13;5002297;28;20112;-70
2023/03/06 02:03:55;;;;;;;17.42;10.20;;;;;;;1.69;100.00;99748.53;5000383;28;20037;-70
2023/03/06 02:06:20;;;;;;;18.00;10.23;;;;;;;2.64;100.00;99889.66;5004792;28;20042;-71
2023/03/06 02:08:48;;;;;;;15.77;9.30;;;;;;;2.64;100.00;99912.97;5009127;28;20042;-71
2023/03/06 02:11:20;;;;;;;18.15;9.02;;;;;;;2.49;100.00;99882.44;5007363;28;20077;-70
2023/03/06 02:13:47;;;;;;;15.00;7.43;;;;;;;2.46;100.00;99869.41;5009401;28;20525;-70
2023/03/06 02:16:15;;;;;;;21.08;8.15;;;;;;;2.04;100.00;99790.75;5008705;28;20128;-70
2023/03/06 02:18:43;;;;;;;14.48;8.57;;;;;;;2.37;100.00;99871.78;4996316;28;20061;-72
2023/03/06 02:21:11;;;;;;;26.95;8.43;;;;;;;2.56;100.00;99897.25;5007130;28;20052;-69
2023/03/06 02:23:52;;;;;;;14.73;7.68;;;;;;;2.27;100.00;99902.63;5007797;28;20069;-73
2023/03/06 02:26:19;;;;;;;15.73;9.82;;;;;;;2.21;100.00;99865.34;5001802;28;20431;-70
2023/03/06 02:28:45;;;;;;;16.67;7.82;;;;;;;2.40;100.00;99889.97;5005026;28;20030;-70
2023/03/06 02:31:26;;;;;;;17.77;8.82;;;;;;;1.47;100.00;99752.25;5003343;28;20058;-70
2023/03/06 02:34:27;;;;;;;14.52;8.82;;;;;;;2.42;100.00;99899.53;4998850;28;20037;-69
2023/03/06 02:37:01;;;;;;;13.98;8.00;;;;;;;2.15;100.00;99875.53;5001699;28;20130;-74
2023/03/06 02:39:31;;;;;;;13.20;8.35;;;;;;;1.83;100.00;99809.22;5006284;28;20034;-70
2023/03/06 02:41:57;;;;;;;18.10;9.20;;;;;;;1.69;100.00;99775.25;5006509;28;20043;-70
2023/03/06 02:44:24;;;;;;;16.75;8.57;;;;;;;2.24;100.00;99881.81;5007372;28;20497;-72
2023/03/06 02:46:50;;;;;;;17.83;9.85;;;;;;;1.57;100.00;99774.94;4997978;28;20527;-71
2023/03/06 02:49:15;;;;;;;13.15;8.00;;;;;;;2.21;100.00;99892.09;5003500;28;20573;-72
2023/03/06 02:51:41;;;;;;;11.77;7.82;;;;;;;2.01;100.00;99867.41;4999161;28;20038;-70
2023/03/06 02:54:07;;;;;;;13.32;7.57;;;;;;;1.81;100.00;99852.28;5002440;28;20054;-69
2023/03/06 02:56:32;;;;;;;14.00;7.55;;;;;;;1.38;100.00;99773.59;5008499;28;20050;-70
2023/03/06 02:58:57;;;;;;;13.65;7.75;;;;;;;1.46;100.00;99800.50;5004512;28;20031;-68
2023/03/06 03:01:23;;;;;;;24.70;10.95;;;;;;;2.16;100.00;99911.81;5027625;28;20042;-74
2023/03/06 03:03:48;;;;;;;17.58;8.77;;;;;;;1.99;100.00;99877.75;5003928;28;20057;-72
2023/03/06 03:06:14;;;;;;;19.52;8.25;;;;;;;2.04;100.00;99885.63;5002221;28;20043;-72
2023/03/06 03:08:39;;;;;;;15.02;8.68;;;;;;;1.32;100.00;99752.75;5011934;28;20041;-72
2023/03/06 03:11:05;;;;;;;13.27;8.20;;;;;;;1.33;100.00;99772.56;5002863;28;20096;-71
2023/03/06 03:13:31;;;;;;;13.73;8.52;;;;;;;1.83;100.00;99917.00;5007970;28;20383;-69
2023/03/06 03:16:02;;;;;;;15.73;8.80;;;;;;;1.73;100.00;99865.81;5004532;28;20096;-72
2023/03/06 03:18:28;;;;;;;16.25;9.45;;;;;;;1.72;100.00;99888.25;5008017;28;20036;-71
2023/03/06 03:20:54;;;;;;;16.38;8.38;;;;;;;1.84;100.00;99913.56;5008276;28;20041;-70
2023/03/06 03:23:20;;;;;;;15.98;9.45;;;;;;;1.01;100.00;99775.16;5007591;28;20482;-69
2023/03/06 03:25:46;;;;;;;12.73;8.57;;;;;;;1.89;100.00;99911.97;5008305;28;20152;-69
2023/03/06 03:28:11;;;;;;;15.50;10.05;;;;;;;0.85;100.00;99765.22;5005649;28;20036;-72
2023/03/06 03:30:39;;;;;;;15.55;9.43;;;;;;;0.77;100.00;99757.28;5004829;28;20055;-71
2023/03/06 03:33:04;;;;;;;12.65;7.85;;;;;;;1.36;100.00;99862.22;5007429;28;20053;-72
2023/03/06 03:35:30;;;;;;;16.85;8.02;;;;;;;0.67;100.00;99772.44;5007309;28;20080;-69
2023/03/06 03:37:55;;;;;;;19.77;9.85;;;;;;;0.49;100.00;99778.81;5007119;28;20029;-69
2023/03/06 03:40:21;;;;;;;19.60;10.00;;;;;;;1.61;100.00;99884.47;5004643;28;20125;-71
2023/03/06 03:42:46;;;;;;;25.63;8.43;;;;;;;1.72;100.00;99908.06;5005606;28;20053;-70
2023/03/06 03:45:12;;;;;;;16.92;8.52;;;;;;;1.76;100.00;99913.34;4996721;28;20042;-72
2023/03/06 03:47:37;;;;;;;18.45;9.10;;;;;;;1.79;100.00;99908.25;5000169;28;21096;-72
2023/03/06 03:50:03;;;;;;;16.10;9.05;;;;;;;0.99;100.00;99776.81;4999905;28;20613;-71
2023/03/06 03:52:29;;;;;;;13.85;8.20;;;;;;;0.84;100.00;99759.19;5005907;28;20100;-70
2023/03/06 03:54:54;;;;;;;18.60;8.93;;;;;;;1.67;100.00;99910.50;5002236;28;20039;-74
2023/03/06 03:57:20;;;;;;;17.52;9.25;;;;;;;1.68;100.00;99920.88;4991190;28;20042;-71
2023/03/06 03:59:45;;;;;;;15.40;9.65;;;;;;;1.65;100.00;99888.91;4994436;28;20034;-70
2023/03/06 04:02:11;;;;;;;21.85;9.90;;;;;;;1.55;100.00;99918.81;5003121;28;20033;-74
2023/03/06 04:04:36;;;;;;;17.10;8.63;;;;;;;1.04;100.00;99807.97;4996224;28;20034;-72
2023/03/06 04:07:03;;;;;;;21.38;7.70;;;;;;;1.08;100.00;99809.81;4999769;28;20560;-75
2023/03/06 04:09:29;;;;;;;17.23;9.68;;;;;;;0.94;100.00;99787.88;5000440;28;20041;-77
2023/03/06 04:11:54;;;;;;;16.73;9.13;;;;;;;1.51;100.00;99903.16;4999327;28;20033;-73
2023/03/06 04:14:20;;;;;;;16.70;10.55;;;;;;;0.67;100.00;99782.78;5006427;28;20115;-70
2023/03/06 04:16:45;;;;;;;20.10;9.30;;;;;;;1.40;100.00;99918.34;5005860;28;20117;-73
2023/03/06 04:19:11;;;;;;;15.07;9.82;;;;;;;1.11;100.00;99886.50;5003931;28;20045;-70
2023/03/06 04:21:36;;;;;;;18.90;10.63;;;;;;;0.97;100.00;99813.78;5006728;28;20046;-71
2023/03/06 04:24:02;;;;;;;16.05;10.48;;;;;;;1.35;100.00;99869.13;4999140;28;20038;-71
2023/03/06 04:26:27;;;;;;;17.48;11.63;;;;;;;0.76;100.00;99790.78;4988679;28;20042;-71
2023/03/06 04:28:54;;;;;;;18.10;11.35;;;;;;;1.42;100.00;99883.97;5007244;28;20079;-73
2023/03/06 04:31:20;;;;;;;26.33;9.73;;;;;;;1.29;100.00;99880.97;5006387;28;20043;-70
2023/03/06 04:33:46;;;;;;;15.68;8.52;;;;;;;1.53;100.00;99924.78;5005041;28;20034;-72
2023/03/06 04:36:33;;;;;;;26.42;10.70;;;;;;;1.56;100.00;99924.84;5010057;28;20133;-69
2023/03/06 04:38:59;;;;;;;19.90;9.95;;;;;;;1.37;100.00;99898.47;4996692;28;20145;-71
2023/03/06 04:41:25;;;;;;;15.60;9.18;;;;;;;0.81;100.00;99784.03;5002686;28;20514;-71
2023/03/06 04:43:51;;;;;;;13.93;9.50;;;;;;;1.39;100.00;99906.28;5007710;28;20072;-71
2023/03/06 04:46:16;;;;;;;13.80;8.05;;;;;;;0.80;100.00;99797.81;5005425;28;20045;-72
2023/03/06 04:48:43;;;;;;;16.83;9.25;;;;;;;1.34;100.00;99893.22;5010386;28;20064;-70
2023/03/06 04:51:11;;;;;;;18.95;8.95;;;;;;;1.62;100.00;99941.41;5001073;28;20050;-71
2023/03/06 04:53:37;;;;;;;16.63;9.93;;;;;;;1.61;100.00;99933.59;4992304;28;20050;-71
2023/03/06 04:56:03;;;;;;;19.88;9.88;;;;;;;0.92;100.00;99836.03;4991014;28;20085;-70
2023/03/06 04:58:28;;;;;;;21.73;9.70;;;;;;;1.54;100.00;99935.13;4990843;28;20038;-71
2023/03/06 05:00:54;;;;;;;18.92;8.10;;;;;;;1.54;100.00;99923.94;4990479;28;20053;-71
2023/03/06 05:03:19;;;;;;;17.77;10.40;;;;;;;1.59;100.00;99950.78;4990533;28;20065;-70
2023/03/06 05:05:45;;;;;;;22.52;10.70;;;;;;;0.83;100.00;99810.78;4990208;28;20558;-72
2023/03/06 05:08:14;;;;;;;22.42;10.27;;;;;;;1.16;100.00;99872.88;4990497;28;20033;-70
2023/03/06 05:10:41;;;;;;;20.35;9.52;;;;;;;0.88;100.00;99819.53;5006884;28;20061;-70
2023/03/06 05:13:06;;;;;;;22.85;10.63;;;;;;;1.51;100.00;99940.22;5010011;28;20042;-72
2023/03/06 05:15:32;;;;;;;17.02;10.52;;;;;;;1.52;100.00;99930.75;5009356;28;20104;-72
2023/03/06 05:17:57;;;;;;;18.90;9.93;;;;;;;1.47;100.00;99931.53;5009408;28;20648;-69
2023/03/06 05:20:23;;;;;;;14.75;9.90;;;;;;;1.61;100.00;99965.50;5003993;28;20045;-71
2023/03/06 05:22:49;;;;;;;24.17;10.82;;;;;;;0.99;100.00;99830.19;5006874;28;20033;-70
2023/03/06 05:25:14;;;;;;;24.40;11.10;;;;;;;1.70;100.00;99954.56;5009121;28;20069;-71
2023/03/06 05:27:41;;;;;;;41.38;10.38;;;;;;;1.00;100.00;99850.88;5009713;28;20060;-72
2023/03/06 05:30:08;;;;;;;22.70;11.38;;;;;;;1.57;100.00;99931.75;5008212;28;20144;-70
2023/03/06 05:32:34;;;;;;;19.73;11.43;;;;;;;1.78;100.00;99955.66;5009319;28;20046;-73
2023/03/06 05:34:59;;;;;;;18.63;11.15;;;;;;;0.91;100.00;99823.91;4999797;28;20064;-71
2023/03/06 05:37:25;;;;;;;20.85;10.85;;;;;;;1.66;100.00;99957.88;5001215;28;20470;-70
2023/03/06 05:39:50;;;;;;;26.25;9.02;;;;;;;1.06;100.00;99839.88;5000016;28;20897;-71
2023/03/06 05:42:17;;;;;;;18.30;10.80;;;;;;;1.86;100.00;99969.66;5012674;28;20077;-72
2023/03/06 05:44:42;;;;;;;19.42;13.32;;;;;;;1.96;100.00;99986.31;5006272;28;20073;-72
2023/03/06 05:47:08;;;;;;;26.38;10.43;;;;;;;1.42;100.00;99889.13;5002255;28;20035;-71
2023/03/06 05:49:35;;;;;;;21.67;14.13;;;;;;;2.12;100.00;99979.84;5009931;28;20045;-73
2023/03/06 05:52:04;;;;;;;19.77;10.68;;;;;;;1.64;100.00;99898.38;5000433;28;20113;-72
2023/03/06 05:54:32;;;;;;;17.35;8.85;;;;;;;1.93;100.00;99972.44;5005271;28;20049;-69
2023/03/06 05:56:58;;;;;;;18.67;11.80;;;;;;;1.70;100.00;99892.47;5007388;28;20050;-71
2023/03/06 05:59:27;;;;;;;20.55;12.90;;;;;;;1.70;100.00;99902.84;5011430;28;20753;-71
2023/03/06 06:01:56;;;;;;;21.77;10.80;;;;;;;0.91;100.00;99773.13;5007350;28;20475;-73
2023/03/06 06:04:23;;;;;;;37.90;14.75;;;;;;;2.02;100.00;99954.56;5008925;28;20042;-71
2023/03/06 06:06:54;;;;;;;23.73;13.13;;;;;;;2.59;100.00;100019.06;5008030;28;20046;-71
2023/03/06 06:09:21;;;;;;;18.48;12.23;;;;;;;2.62;100.00;100024.34;5007315;28;20046;-74
2023/03/06 06:11:50;;;;;;;22.98;13.65;;;;;;;2.71;100.00;100032.31;5007667;28;20482;-69
2023/03/06 06:14:15;;;;;;;19.48;12.13;;;;;;;2.57;100.00;100036.25;5006320;28;20029;-70
2023/03/06 06:16:43;;;;;;;20.77;12.90;;;;;;;1.92;100.00;99901.72;5002302;28;20052;-69
2023/03/06 06:19:09;;;;;;;21.23;12.75;;;;;;;2.69;100.00;100023.66;5005115;28;20057;-73
2023/03/06 06:21:34;;;;;;;20.67;12.75;;;;;;;2.13;100.00;99900.50;5012427;28;20729;-71
2023/03/06 06:23:59;;;;;;;33.70;11.95;;;;;;;2.98;100.00;100059.78;5009785;28;20042;-70
2023/03/06 06:26:25;;;;;;;21.60;12.63;;;;;;;2.33;100.00;99954.53;5001414;28;20079;-71
2023/03/06 06:28:50;;;;;;;21.63;13.30;;;;;;;2.28;100.00;99930.25;5004512;28;20056;-71
2023/03/06 06:31:16;;;;;;;24.90;14.05;;;;;;;3.04;100.00;100072.88;5000017;28;20098;-70
2023/03/06 06:33:41;;;;;;;23.77;12.88;;;;;;;2.00;100.00;99940.72;5006759;28;20137;-70
2023/03/06 06:36:19;;;;;;;21.90;12.90;;;;;;;2.95;100.00;100090.81;5004301;28;20060;-75
2023/03/06 06:38:44;;;;;;;23.20;13.60;;;;;;;2.91;100.00;100079.47;5006273;28;20061;-72
2023/03/06 06:41:10;;;;;;;27.73;14.07;;;;;;;3.01;100.00;100079.69;5011354;28;20116;-70
2023/03/06 06:43:35;;;;;;;19.92;12.15;;;;;;;3.08;100.00;100079.88;5006236;28;20038;-71
2023/03/06 06:46:01;;;;;;;24.30;11.88;;;;;;;3.14;100.00;100061.03;5004301;28;20067;-70
2023/03/06 06:48:26;;;;;;;20.98;13.23;;;;;;;2.77;100.00;100007.44;5006531;28;20060;-68
2023/03/06 06:50:59;;;;;;;14.82;11.38;;;;;;;2.50;100.00;99965.31;5009926;28;20095;-70
2023/03/06 06:53:24;;;;;;;20.70;10.75;;;;;;;2.82;100.00;100006.69;4998633;28;20056;-69
2023/03/06 06:55:50;;;;;;;15.32;10.77;;;;;;;2.88;100.00;99972.25;5000329;28;20034;-69
2023/03/06 06:58:16;;;;;;;26.27;13.75;;;;;;;3.14;100.00;99994.50;5006337;28;20092;-67
2023/03/06 07:00:41;;;;;;;22.33;11.73;;;;;;;3.96;100.00;100108.72;4993411;28;20042;-67
2023/03/06 07:03:09;;;;;;;28.25;11.75;;;;;;;3.79;100.00;100082.41;5005991;28;20053;-69
2023/03/06 07:05:37;;;;;;;23.63;13.18;;;;;;;3.37;100.00;99982.06;5003019;28;20054;-68
2023/03/06 07:08:03;;;;;;;20.65;12.95;;;;;;;4.34;100.00;100116.44;5004198;28;20394;-67
2023/03/06 07:10:28;;;;;;;19.23;10.95;;;;;;;3.61;100.00;99980.84;5002070;28;20489;-69
2023/03/06 07:12:55;;;;;;;33.58;13.50;;;;;;;4.50;100.00;100127.16;4999063;28;20049;-68
2023/03/06 07:15:22;;;;;;;20.58;11.07;;;;;;;4.00;100.00;99993.75;4994749;28;20038;-68
2023/03/06 07:17:48;;;;;;;26.20;11.32;;;;;;;4.77;100.00;100111.19;5001370;28;20109;-67
2023/03/06 07:20:14;;;;;;;18.70;11.68;;;;;;;4.32;100.00;100023.75;5003578;28;20110;-67
2023/03/06 07:22:40;;;;;;;18.65;12.98;;;;;;;4.98;100.00;100095.13;5005481;28;20037;-69
2023/03/06 07:25:06;;;;;;;16.23;11.60;;;;;;;4.59;100.00;100005.22;5003598;28;20417;-68
2023/03/06 07:27:31;;;;;;;20.63;10.95;;;;;;;5.40;100.00;100143.50;4998317;28;20088;-68
2023/03/06 07:29:57;;;;;;;19.20;11.48;;;;;;;5.33;100.00;100136.47;5000582;28;20689;-68
2023/03/06 07:32:22;;;;;;;20.63;11.35;;;;;;;5.64;100.00;100145.63;5001836;28;20026;-68
2023/03/06 07:34:48;;;;;;;21.10;12.02;;;;;;;5.13;100.00;100034.69;4997856;28;20774;-68
2023/03/06 07:37:13;;;;;;;23.48;13.10;;;;;;;5.96;100.00;100153.09;5006148;28;20741;-70
2023/03/06 07:39:39;;;;;;;27.15;13.00;;;;;;;5.58;100.00;100169.84;5006465;28;20127;-69
2023/03/06 07:42:06;;;;;;;34.55;21.52;;;;;;;5.57;100.00;100146.38;4991248;28;20042;-67
2023/03/06 07:44:36;;;;;;;29.80;13.90;;;;;;;5.19;100.00;100034.78;5003783;28;20675;-68
2023/03/06 07:47:02;;;;;;;19.65;14.77;;;;;;;5.57;100.00;100090.03;5002251;28;20034;-67
2023/03/06 07:49:27;;;;;;;18.92;13.13;;;;;;;6.05;100.00;100163.63;5002032;28;20077;-68
2023/03/06 07:51:53;;;;;;;34.70;13.93;;;;;;;5.24;100.00;100039.22;5000011;28;20057;-67
2023/03/06 07:54:18;;;;;;;24.73;15.48;;;;;;;6.07;100.00;100165.41;4999529;28;20471;-69
2023/03/06 07:56:44;;;;;;;21.33;13.18;;;;;;;5.76;100.00;100140.63;4989066;28;20563;-69
2023/03/06 07:59:10;;;;;;;23.77;13.75;;;;;;;5.28;100.00;100056.59;5000041;28;20045;-69
2023/03/06 08:01:38;;;;;;;25.45;12.85;;;;;;;6.00;100.00;100168.78;5004995;28;20045;-70
2023/03/06 08:04:04;;;;;;;28.20;13.98;;;;;;;5.69;100.00;100111.03;5004400;28;20441;-69
2023/03/06 08:06:29;;;;;;;18.98;11.55;;;;;;;5.54;100.00;100066.53;4999840;28;20051;-68
2023/03/06 08:08:55;;;;;;;24.35;12.88;;;;;;;6.26;100.00;100173.47;4997941;28;20104;-68
2023/03/06 08:11:24;;;;;;;23.10;14.20;;;;;;;6.16;100.00;100174.19;4998082;28;20112;-69
2023/03/06 08:13:51;;;;;;;26.15;14.82;;;;;;;6.27;100.00;100183.03;5002417;28;20042;-69
2023/03/06 08:16:22;;;;;;;29.92;18.17;;;;;;;5.70;100.00;100089.34;5002203;28;20112;-69
2023/03/06 08:18:48;;;;;;;31.27;15.73;;;;;;;5.47;100.00;100062.09;5001734;28;20109;-70
2023/03/06 08:21:17;;;;;;;27.17;18.02;;;;;;;6.27;100.00;100180.44;5004328;28;20148;-71
2023/03/06 08:23:43;;;;;;;24.85;13.73;;;;;;;5.99;100.00;100164.41;4989020;28;20069;-72
2023/03/06 08:26:15;;;;;;;28.67;15.48;;;;;;;6.31;100.00;100197.88;4998911;28;20073;-70
2023/03/06 08:28:40;;;;;;;21.23;13.82;;;;;;;5.65;100.00;100100.53;5004623;28;20057;-70
2023/03/06 08:31:23;;;;;;;32.67;21.05;;;;;;;6.19;100.00;100174.25;5004112;28;20552;-71
2023/03/06 08:33:50;;;;;;;29.38;19.90;;;;;;;6.30;100.00;100173.53;5000327;28;20072;-73
2023/03/06 08:36:16;;;;;;;23.45;12.40;;;;;;;5.69;100.00;100082.38;5003664;28;20049;-73
2023/03/06 08:38:41;;;;;;;26.08;15.45;;;;;;;6.26;100.00;100183.91;5005415;28;20505;-75
2023/03/06 08:41:07;;;;;;;30.48;18.73;;;;;;;5.79;100.00;100105.94;5003513;28;20045;-74
2023/03/06 08:43:34;;;;;;;20.50;13.38;;;;;;;6.44;100.00;100212.81;5001284;28;20495;-72
2023/03/06 08:46:00;;;;;;;29.52;20.75;;;;;;;6.18;100.00;100194.22;5001166;28;20128;-74
2023/03/06 08:48:26;;;;;;;34.75;20.88;;;;;;;6.08;100.00;100187.97;4993289;28;20050;-75
2023/03/06 08:50:51;;;;;;;24.67;18.58;;;;;;;6.28;100.00;100221.28;5006670;28;20099;-68
2023/03/06 08:53:17;;;;;;;20.77;14.23;;;;;;;5.27;100.00;100095.63;4987101;28;20133;-70
2023/03/06 08:55:43;;;;;;;32.83;18.75;;;;;;;6.06;100.00;100215.75;4997423;28;20347;-73
2023/03/06 08:58:09;;;;;;;32.50;19.50;;;;;;;6.28;100.00;100216.94;4999498;28;20141;-72
2023/03/06 09:00:34;;;;;;;25.33;14.95;;;;;;;6.12;100.00;100189.78;5001246;28;20044;-73
2023/03/06 09:03:00;;;;;;;21.08;13.65;;;;;;;6.49;100.00;100232.00;5002832;28;20049;-71
2023/03/06 09:05:26;;;;;;;29.00;20.27;;;;;;;6.50;100.00;100209.41;5001087;28;20030;-72
2023/03/06 09:07:52;;;;;;;30.83;20.60;;;;;;;6.58;100.00;100215.63;4998219;28;20030;-72
2023/03/06 09:10:20;;;;;;;24.73;15.02;;;;;;;6.06;100.00;100124.59;5000075;28;20108;-72
2023/03/06 09:12:45;;;;;;;44.38;22.45;;;;;;;6.01;100.00;100081.97;4991302;28;20578;-71
2023/03/06 09:15:12;;;;;;;26.60;14.90;;;;;;;6.90;100.00;100223.81;4980599;28;20057;-71
2023/03/06 09:17:38;;;;;;;29.75;21.48;;;;;;;6.49;100.00;100121.66;4983339;28;20848;-71
2023/03/06 09:20:06;;;;;;;34.53;19.98;;;;;;;6.88;100.00;100180.31;4999541;28;20048;-72
2023/03/06 09:22:32;;;;;;;38.97;20.50;;;;;;;7.26;99.84;100222.50;4997141;28;20148;-71
2023/03/06 09:24:58;;;;;;;32.72;21.92;;;;;;;6.62;97.69;100094.84;5002777;28;20050;-72
2023/03/06 09:27:24;;;;;;;36.42;22.40;;;;;;;7.43;100.00;100229.63;4997819;28;20045;-70
2023/03/06 09:29:49;;;;;;;36.22;22.77;;;;;;;7.31;95.90;100233.84;4997087;28;20047;-72
2023/03/06 09:32:15;;;;;;;37.35;20.80;;;;;;;7.44;91.56;100207.84;4983996;28;20129;-70
2023/03/06 09:34:40;;;;;;;29.88;20.58;;;;;;;7.60;89.14;100241.94;5003018;28;20046;-72
2023/03/06 09:37:06;;;;;;;32.85;21.13;;;;;;;6.91;91.48;100128.22;5001278;28;20077;-70
2023/03/06 09:39:31;;;;;;;36.67;20.40;;;;;;;7.49;92.59;100222.72;5006953;28;20042;-71
2023/03/06 09:41:58;;;;;;;30.70;21.58;;;;;;;6.97;93.18;100123.03;5004703;28;20149;-71
2023/03/06 09:44:31;;;;;;;30.90;19.85;;;;;;;7.78;92.03;100235.16;5001729;28;20057;-71
2023/03/06 09:47:44;;;;;;;32.33;21.42;;;;;;;7.47;93.11;100241.81;5004718;28;20042;-71
2023/03/06 09:50:20;;;;;;;38.92;24.83;;;;;;;7.81;93.42;100236.03;4967394;28;20058;-71
2023/03/06 09:52:53;;;;;;;43.25;27.48;;;;;;;7.74;95.45;100210.72;4983967;28;20122;-71
2023/03/06 09:55:22;;;;;;;38.07;25.33;;;;;;;7.86;95.04;100223.00;4981936;28;20395;-73
2023/03/06 09:58:16;;;;;;;36.75;25.27;;;;;;;7.69;98.17;100246.38;5004314;28;20050;-70
2023/03/06 10:00:54;;;;;;;;;;;;;;;7.93;97.87;100248.31;5003981;28;20846;-70
2023/03/06 10:03:29;;;;;;;39.97;26.65;;;;;;;8.11;98.21;100244.97;5003451;28;20051;-70
2023/03/06 10:06:11;;;;;;;45.83;29.52;;;;;;;8.15;98.25;100257.22;5000884;28;20198;-72
2023/03/06 10:08:59;;;;;;;58.13;28.42;;;;;;;7.46;99.07;100126.06;5002713;28;20079;-71
2023/03/06 10:11:55;;;;;;;43.30;28.00;;;;;;;8.05;100.00;100247.53;5002640;28;20025;-71
2023/03/06 10:14:27;;;;;;;42.28;28.13;;;;;;;7.97;100.00;100249.22;5005043;28;20048;-71
2023/03/06 10:16:53;;;;;;;41.72;26.90;;;;;;;7.19;100.00;100158.91;5001806;28;20029;-71
2023/03/06 10:19:20;;;;;;;47.25;23.90;;;;;;;7.71;100.00;100215.94;5003934;28;20417;-74
2023/03/06 10:21:56;;;;;;;45.88;24.48;;;;;;;7.78;100.00;100227.31;5015941;28;20041;-72
2023/03/06 10:24:53;;;;;;;38.38;25.58;;;;;;;8.01;100.00;100240.56;5005840;28;20037;-71
2023/03/06 10:27:27;;;;;;;32.83;23.55;;;;;;;8.28;100.00;100233.78;4999034;28;20068;-71
2023/03/06 10:30:33;;;;;;;35.85;24.95;;;;;;;8.28;94.96;100236.38;5001229;28;20053;-71
2023/03/06 10:33:12;;;;;;;42.95;27.70;;;;;;;6.59;95.95;100013.16;5002185;28;20081;-72
2023/03/06 10:35:48;;;;;;;34.85;23.45;;;;;;;8.19;95.34;100245.94;5002335;28;20497;-70
2023/03/06 10:38:30;;;;;;;37.13;23.52;;;;;;;8.16;93.04;100235.44;5002098;28;20069;-71
2023/03/06 10:41:10;;;;;;;37.00;23.52;;;;;;;8.20;87.29;100242.44;5003340;28;20034;-70
2023/03/06 10:44:02;;;;;;;43.28;23.48;;;;;;;7.92;87.07;100225.69;5001974;28;20706;-70
2023/03/06 10:46:36;;;;;;;34.22;24.80;;;;;;;7.10;92.04;100108.38;4985307;28;20045;-69
2023/03/06 10:49:24;;;;;;;37.90;28.23;;;;;;;8.53;94.45;100217.41;5003803;28;20751;-70
2023/03/06 10:52:00;;;;;;;33.72;24.55;;;;;;;8.59;85.14;100224.38;5003126;28;20046;-69
2023/03/06 10:54:28;;;;;;;34.47;22.77;;;;;;;8.04;83.33;100123.00;5003304;28;20391;-70
2023/03/06 10:56:54;;;;;;;33.72;22.42;;;;;;;8.80;79.85;100182.66;5004130;28;20133;-71
2023/03/06 10:59:28;;;;;;;28.83;20.60;;;;;;;8.47;74.01;100085.75;5001617;28;20873;-71
2023/03/06 11:01:56;;;;;;;30.20;17.90;;;;;;;8.89;68.90;100176.56;5000186;28;20025;-73
2023/03/06 11:04:29;;;;;;;34.35;20.83;;;;;;;9.71;66.91;100203.72;5002009;28;20050;-74
2023/03/06 11:07:17;;;;;;;43.25;21.70;;;;;;;9.89;63.07;100202.88;5001476;28;20046;-74
2023/03/06 11:09:55;;;;;;;32.95;21.00;;;;;;;10.13;61.19;100194.94;5000777;28;20038;-73
2023/03/06 11:12:42;;;;;;;39.17;21.60;;;;;;;9.92;60.92;100184.50;5003042;28;20340;-75
2023/03/06 11:15:13;;;;;;;31.20;20.65;;;;;;;10.41;60.10;100188.81;5001004;28;20161;-75
2023/03/06 11:17:57;;;;;;;36.92;17.10;;;;;;;9.71;60.31;100182.78;5001812;28;20534;-74
2023/03/06 11:20:23;;;;;;;29.77;19.23;;;;;;;9.96;60.28;100185.38;5003569;28;20037;-73
2023/03/06 11:22:49;;;;;;;45.40;19.83;;;;;;;10.13;59.34;100178.34;5002567;28;20025;-73
2023/03/06 11:25:18;;;;;;;25.05;17.08;;;;;;;10.34;56.85;100177.47;5001889;28;20055;-73